Flight Track Log - Related Links

Times and Time Zones

All times are in EST time to prevent confusion due to time zone crossing. See the FFT918 flight status page for this flight to view local times or setup timezone preferences in your user account.

Time Position Orientation Groundspeed Altitude Reporting Facility
EST Latitude Longitude Course Direction KTS MPH feet Rate Location/Type
Fri 09:45:33 AM 28.4333 -81.3000 30° Northeast 151 174 700  Level Orlando TRACON
Fri 09:46:46 AM 28.4833 -81.2667 30° Northeast 204 235 2,800 2,211 Climbing Orlando TRACON
Fri 09:47:46 AM 28.5667 -81.2500 10° North 274 315 5,600 2,981 Climbing Orlando TRACON
Fri 09:49:25 AM 28.6803 -81.2811 346° North 279 321 10,700 2,604 Climbing Jacksonville Center
Fri 09:50:25 AM 28.7703 -81.3056 347° North 291 335 12,500 2,050 Climbing Jacksonville Center
Fri 09:51:25 AM 28.8731 -81.3325 347° North 339 390 14,800 2,450 Climbing Jacksonville Center
Fri 09:52:25 AM 28.9819 -81.3617 347° North 367 422 17,400 2,400 Climbing Jacksonville Center
Fri 09:53:25 AM 29.0928 -81.3883 348° North 394 453 19,600 2,100 Climbing Jacksonville Center
Fri 09:54:25 AM 29.2097 -81.4033 354° North 405 466 21,600 1,950 Climbing Jacksonville Center
Fri 09:55:25 AM 29.3311 -81.4108 357° North 425 489 23,500 1,800 Climbing Jacksonville Center
Fri 09:56:25 AM 29.4564 -81.4281 353° North 438 504 25,200 1,450 Climbing Jacksonville Center
Fri 09:57:25 AM 29.5861 -81.4381 356° North 448 516 26,400 1,200 Climbing Jacksonville Center
Fri 09:58:25 AM 29.7197 -81.4506 355° North 466 536 27,600 1,400 Climbing Jacksonville Center
Fri 09:59:25 AM 29.8578 -81.4653 355° North 483 556 29,200 1,950 Climbing Jacksonville Center
Fri 10:00:25 AM 29.9872 -81.4778 355° North 477 549 31,500 2,050 Climbing Jacksonville Center
Fri 10:01:25 AM 30.1147 -81.4903 355° North 471 542 33,300 1,600 Climbing Jacksonville Center
Fri 10:02:25 AM 30.2400 -81.5006 356° North 460 529 34,700 1,250 Climbing Jacksonville Center
Fri 10:03:25 AM 30.3633 -81.5106 356° North 454 522 35,800 1,100 Climbing Jacksonville Center
Fri 10:04:25 AM 30.4781 -81.4994 North 449 517 36,900 600 Climbing Jacksonville Center
Fri 10:05:25 AM 30.6053 -81.4903 North 449 517 37,000 50 Climbing Jacksonville Center
Fri 10:06:25 AM 30.7283 -81.4811 North 444 511 37,000  Level Jacksonville Center
Fri 10:07:25 AM 30.8536 -81.4697 North 444 511 37,000  Level Jacksonville Center
Fri 10:08:25 AM 30.9808 -81.4606 North 444 511 37,000  Level Jacksonville Center
Fri 10:09:25 AM 31.1103 -81.4439 North 449 517 37,000  Level Jacksonville Center
Fri 10:10:25 AM 31.2372 -81.4250 North 460 529 37,000  Level Jacksonville Center
Fri 10:11:25 AM 31.3792 -81.4058 North 460 529 37,000  Level Jacksonville Center
Fri 10:12:25 AM 31.5019 -81.3892 North 455 524 37,000  Level Jacksonville Center
Fri 10:13:25 AM 31.6208 -81.3725 North 460 529 37,000  Level Jacksonville Center
Fri 10:14:25 AM 31.7606 -81.3531 North 460 529 37,000  Level Jacksonville Center
Fri 10:15:25 AM 31.8856 -81.3339 North 465 535 37,000  Level Jacksonville Center
Fri 10:16:25 AM 32.0147 -81.3172 North 465 535 37,000  Level Jacksonville Center
Fri 10:17:25 AM 32.1419 -81.3003 North 455 524 37,000  Level Jacksonville Center
Fri 10:18:25 AM 32.2733 -81.2831 North 465 535 37,000  Level Jacksonville Center
Fri 10:19:25 AM 32.4044 -81.2636 North 465 535 37,000  Level Jacksonville Center
Fri 10:20:25 AM 32.5336 -81.2464 North 465 535 37,000  Level Jacksonville Center
Fri 10:21:25 AM 32.6503 -81.2297 North 465 535 37,000  Level Jacksonville Center
Fri 10:22:25 AM 32.7919 -81.2072 North 465 535 37,000  Level Jacksonville Center
Fri 10:23:25 AM 32.9233 -81.1900 North 465 535 37,000 -50 Level Jacksonville Center
Fri 10:24:25 AM 33.0503 -81.1703 North 465 535 36,900 -50 Descending Jacksonville Center
Fri 10:25:25 AM 33.1794 -81.1528 North 465 535 36,900  Level Jacksonville Center
Fri 10:26:25 AM 33.3044 -81.1381 North 460 529 36,900 50 Level Jacksonville Center
Fri 10:27:25 AM 33.4317 -81.1181 North 460 529 37,000 50 Climbing Jacksonville Center
Fri 10:28:25 AM 33.5558 -81.0581 22° Northeast 460 529 37,000  Level Jacksonville Center
Fri 10:29:25 AM 33.6694 -80.9708 33° Northeast 466 536 37,000  Level Jacksonville Center
Fri 10:30:25 AM 33.7869 -80.8858 31° Northeast 476 548 37,000 -50 Level Jacksonville Center
Fri 10:31:25 AM 33.9047 -80.8008 31° Northeast 482 555 36,900 -50 Descending Jacksonville Center
Fri 10:32:25 AM 34.0158 -80.7178 32° Northeast 482 555 36,900 50 Level Jacksonville Center
Fri 10:33:25 AM 34.1314 -80.6347 31° Northeast 482 555 37,000 50 Climbing Jacksonville Center
Fri 10:34:25 AM 34.2467 -80.5489 32° Northeast 482 555 37,000  Level Jacksonville Center
Fri 10:35:25 AM 34.3597 -80.4628 32° Northeast 482 555 37,000  Level Jacksonville Center
Fri 10:36:25 AM 34.4728 -80.3792 31° Northeast 482 555 37,000  Level Jacksonville Center
Fri 10:38:43 AM 34.7117 -80.1867 34° Northeast 480 552 37,000  Level Washington Center
Fri 10:39:44 AM 34.8225 -80.0975 33° Northeast 480 552 37,000  Level Washington Center
Fri 10:40:48 AM 34.9436 -80.0006 33° Northeast 480 552 37,000  Level Washington Center
Fri 10:41:48 AM 35.0561 -79.9097 33° Northeast 481 554 37,000  Level Washington Center
Fri 10:42:52 AM 35.1686 -79.8192 33° Northeast 482 555 37,000  Level Washington Center
Fri 10:43:52 AM 35.3028 -79.7072 34° Northeast 482 555 37,000  Level Washington Center
Fri 10:44:56 AM 35.4158 -79.6164 33° Northeast 484 557 37,000  Level Washington Center
Fri 10:45:56 AM 35.5278 -79.5244 34° Northeast 484 557 37,000  Level Washington Center
Fri 10:47:00 AM 35.6544 -79.4208 34° Northeast 501 577 37,000  Level Washington Center
Fri 10:48:03 AM 35.7536 -79.3383 34° Northeast 483 556 37,000  Level Washington Center
Fri 10:49:04 AM 35.8639 -79.2464 34° Northeast 479 551 37,000  Level Washington Center
Fri 10:50:05 AM 35.9969 -79.1347 34° Northeast 478 550 37,000  Level Washington Center
Fri 10:51:09 AM 36.1072 -79.0433 34° Northeast 478 550 37,000  Level Washington Center
Fri 10:52:10 AM 36.2189 -78.9494 34° Northeast 481 554 37,000  Level Washington Center
Fri 10:53:13 AM 36.3283 -78.8575 34° Northeast 479 551 37,000  Level Washington Center
Fri 10:54:14 AM 36.4381 -78.7644 34° Northeast 478 550 37,000  Level Washington Center
Fri 10:55:15 AM 36.5475 -78.6728 34° Northeast 474 545 37,000  Level Washington Center
Fri 10:56:19 AM 36.6744 -78.5650 34° Northeast 474 545 37,000  Level Washington Center
Fri 10:57:21 AM 36.7800 -78.4769 34° Northeast 473 544 37,000  Level Washington Center
Fri 10:58:22 AM 36.8867 -78.3861 34° Northeast 474 545 37,000  Level Washington Center
Fri 10:59:26 AM 37.0131 -78.2761 35° Northeast 474 545 37,000  Level Washington Center
Fri 11:00:27 AM 37.1192 -78.1850 34° Northeast 474 545 37,000  Level Washington Center
Fri 11:01:28 AM 37.2336 -78.0850 35° Northeast 475 547 37,000  Level Washington Center
Fri 11:02:32 AM 37.3422 -77.9906 35° Northeast 475 547 37,000  Level Washington Center
Fri 11:03:33 AM 37.4522 -77.8956 34° Northeast 476 548 37,000 -384 Level Washington Center
Fri 11:04:37 AM 37.5619 -77.7992 35° Northeast 478 550 36,200 -1,452 Descending Washington Center
Fri 11:05:37 AM 37.6706 -77.7008 36° Northeast 478 550 34,000 -2,419 Descending Washington Center
Fri 11:06:41 AM 37.7972 -77.5853 36° Northeast 472 543 31,200 -1,440 Descending Washington Center
Fri 11:07:42 AM 37.9017 -77.4903 36° Northeast 464 534 31,000 -98 Descending Washington Center
Fri 11:08:43 AM 38.0044 -77.3969 36° Northeast 458 527 31,000  Level Washington Center
Fri 11:09:47 AM 38.1092 -77.3006 36° Northeast 457 526 31,000  Level Washington Center
Fri 11:10:48 AM 38.2114 -77.2067 36° Northeast 457 526 31,000  Level Washington Center
Fri 11:11:51 AM 38.3144 -77.1119 36° Northeast 457 526 31,000 -387 Level Washington Center
Fri 11:12:52 AM 38.4367 -76.9981 36° Northeast 457 526 30,200 -1,500 Descending Washington Center
Fri 11:13:55 AM 38.5383 -76.9025 36° Northeast 457 526 27,900 -2,226 Descending Washington Center
Fri 11:14:56 AM 38.6367 -76.8111 36° Northeast 447 514 25,600 -2,032 Descending Washington Center
Fri 11:15:59 AM 38.7153 -76.6978 48° Northeast 443 510 23,700 -1,500 Descending Washington Center
Fri 11:17:00 AM 38.7472 -76.5481 75° East 439 505 22,500 -1,548 Descending Washington Center
Fri 11:18:03 AM 38.7781 -76.4006 75° East 434 499 20,500 -2,129 Descending Washington Center
Fri 11:19:04 AM 38.8167 -76.2214 74° East 434 499 18,100 -2,160 Descending Washington Center
Fri 11:20:08 AM 38.8406 -76.0936 76° East 431 496 16,000 -1,488 Descending Washington Center
Fri 11:21:09 AM 38.8719 -75.9258 76° East 411 473 15,000 -484 Descending Washington Center
Fri 11:22:12 AM 38.9181 -75.8097 63° Northeast 389 448 15,000  Level Washington Center
Fri 11:23:14 AM 39.0008 -75.7339 35° Northeast 368 423 15,000 -240 Level Washington Center
Fri 11:24:17 AM 39.0889 -75.6733 28° Northeast 362 417 14,500 -774 Descending Washington Center
Fri 11:25:18 AM 39.1844 -75.6667 North 339 390 13,400 -1,033 Descending Washington Center
Fri 11:26:19 AM 39.2750 -75.6561 North 329 379 12,400 -683 Descending Washington Center
Fri 11:27:21 AM 39.3783 -75.6150 17° North 339 390 12,000 -190 Descending Washington Center
Fri 11:28:25 AM 39.4603 -75.5506 31° Northeast 341 392 12,000  Level Washington Center
Fri 11:29:26 AM 39.5408 -75.4858 32° Northeast 341 392 12,000  Level Washington Center
Fri 11:30:30 AM 39.6231 -75.4197 32° Northeast 345 397 12,000 -432 Level Washington Center
Fri 11:31:31 AM 39.7025 -75.3547 32° Northeast 340 391 11,100 -1,121 Descending Washington Center
Fri 11:32:01 AM 39.7500 -75.3167 32° Northeast 305 351 10,300 -1,643 Descending Philadelphia TRACON
Fri 11:32:55 AM 39.8167 -75.2667 30° Northeast 294 338 8,800 -1,632 Descending Philadelphia TRACON
Fri 11:33:55 AM 39.8833 -75.2167 30° Northeast 273 314 7,200 -1,350 Descending Philadelphia TRACON
Fri 11:34:55 AM 39.9500 -75.1667 30° Northeast 266 306 6,100 -850 Descending Philadelphia TRACON
Fri 11:35:55 AM 40.0000 -75.1167 37° Northeast 262 302 5,500 -900 Descending Philadelphia TRACON
Fri 11:36:55 AM 40.0667 -75.0667 30° Northeast 247 284 4,300 -750 Descending Philadelphia TRACON
Fri 11:37:55 AM 40.1167 -75.0167 37° Northeast 198 228 4,000 -150 Descending Philadelphia TRACON
Fri 11:38:55 AM 40.1500 -74.9833 37° Northeast 188 216 4,000 -350 Level Philadelphia TRACON
Fri 11:39:55 AM 40.1833 -74.9333 49° Northeast 159 183 3,300 -1,095 Descending Philadelphia TRACON
Fri 11:41:01 AM 40.2167 -74.9000 37° Northeast 165 190 1,700 -1,100 Descending Philadelphia TRACON
Fri 11:41:55 AM 40.2500 -74.8667 37° Northeast 116 133 1,100 -667 Descending Philadelphia TRACON

Login

Don't have an account? Register now (free) for customized features, flight alerts, and more!